Del Norte, CO (81132)

5:57 AM MST on January 18, 2017 (GMT -0700)
WestMonteVista | | Change Station

Elev 7684 ft 37.59 °N, 106.17 °W | Updated 2 minutes ago

Overcast
Overcast
20.6 °F
Feels Like 21 °F
N
1.6
Wind Variable Wind from West
Gusts 3.1 mph

Today
High -- | Low -- °F
--% Chance of Precip.
Yesterday
High -- | Low -- °F
Precip. -- in
Pressure 30.11 in
Visibility 10.0 miles
Clouds Clear
Windchill 21 °F
Dew Point 20 °F
Humidity 95%
Rainfall 0.00 in
Snow Depth Not available.
7:18 AM 5:14 PM
Waning Gibbous, 63% visible
METAR K04V 181255Z AUTO 35009KT 10SM CLR M10/M12 A3011 RMK AO2 PWINO
Pressure 30.11 in
Visibility 10.0 miles
Clouds Clear
Windchill 21 °F
Dew Point 20 °F
Humidity 95%
Rainfall 0.00 in
Snow Depth Not available.
7:18 AM 5:14 PM
Waning Gibbous, 63% visible
METAR K04V 181255Z AUTO 35009KT 10SM CLR M10/M12 A3011 RMK AO2 PWINO

Get Your Daily Forecast Email!

Thanks for signing up!

Be on the lookout for a verification email in your inbox.

You'll start receiving the daily forecast at 8 AM.

×

10-Day Weather Forecast

Almanac

Astronomy

Jan. 18, 2017 Rise Set
Actual Time
Civil Twilight
Nautical Twilight
Astronomical Twilight
Moon
Length of Visible Light
Length of Day
Tomorrow will be .
, % of the Moon is Illuminated

Today's Extremes

State Highs State Lows

Community

WunderPhotos

Upload Photos

1,962,540 photos uploaded!

WunderBlog® & News

Nearby

Air Quality

  Air Quality AQ Index Pollutant
Not available.

Snow Depth

Station Depth Elevation

Earthquake Activity

City Distance Mag. Time & Date
Minimum magnitude displayed is 2.5.

Coastal Water Temperatures

Place Temperature

Stations

Nearby Weather Stations

Station Location Temp. Windchill Dew Point Humidity Wind Precip. Elev Updated Type
                   

Watches & Warnings

There are currently no watches in effect.